createdAt,value
2018-03-30T00:02:09.261Z,100226.25
2018-03-30T00:04:35.346Z,100224.16
2018-03-30T00:07:06.159Z,100226.20
2018-03-30T00:09:44.347Z,100227.23
2018-03-30T00:12:10.326Z,100222.38
2018-03-30T00:14:36.325Z,100226.72
2018-03-30T00:17:02.446Z,100221.62
2018-03-30T00:19:28.510Z,100222.94
2018-03-30T00:21:54.547Z,100212.16
2018-03-30T00:24:20.582Z,100222.42
2018-03-30T00:26:46.705Z,100214.25
2018-03-30T00:29:12.854Z,100214.67
2018-03-30T00:31:38.914Z,100209.73
2018-03-30T00:34:04.922Z,100210.98
2018-03-30T00:36:31.005Z,100212.23
2018-03-30T00:38:57.124Z,100204.56
2018-03-30T00:41:23.110Z,100203.31
2018-03-30T00:43:49.095Z,100207.73
2018-03-30T00:46:15.194Z,100211.02
2018-03-30T00:48:41.213Z,100201.17
2018-03-30T00:51:07.189Z,100207.13
2018-03-30T00:53:50.169Z,100205.18
2018-03-30T00:56:16.234Z,100200.33
2018-03-30T00:58:42.240Z,100196.49
2018-03-30T01:01:08.939Z,100196.98
2018-03-30T01:03:34.938Z,100194.55
2018-03-30T01:06:01.247Z,100188.63
2018-03-30T01:08:27.354Z,100186.75
2018-03-30T01:13:26.103Z,100181.37
2018-03-30T01:15:52.093Z,100185.82
2018-03-30T01:18:18.125Z,100179.67
2018-03-30T01:20:44.153Z,100180.98
2018-03-30T01:23:10.153Z,100183.24
2018-03-30T01:25:36.180Z,100182.39
2018-03-30T01:28:02.214Z,100175.60
2018-03-30T01:30:28.230Z,100174.47
2018-03-30T01:32:54.234Z,100172.80
2018-03-30T01:35:21.258Z,100171.97
2018-03-30T01:37:47.282Z,100177.05
2018-03-30T01:40:13.269Z,100176.37
2018-03-30T01:42:39.291Z,100171.75
2018-03-30T01:45:05.297Z,100162.63
2018-03-30T01:47:31.291Z,100157.37
2018-03-30T01:49:57.384Z,100168.34
2018-03-30T01:52:23.422Z,100169.83
2018-03-30T01:54:49.427Z,100158.00
2018-03-30T01:57:15.434Z,100161.50
2018-03-30T01:59:41.445Z,100159.26
2018-03-30T02:02:07.457Z,100162.08
2018-03-30T02:04:33.463Z,100163.09
2018-03-30T02:06:59.489Z,100157.86
2018-03-30T02:09:25.499Z,100155.08
2018-03-30T02:11:51.486Z,100152.63
2018-03-30T02:14:17.534Z,100151.72
2018-03-30T02:16:43.510Z,100151.37
2018-03-30T02:19:09.530Z,100143.55
2018-03-30T02:21:35.585Z,100144.59
2018-03-30T02:24:01.570Z,100145.20
2018-03-30T02:26:27.596Z,100138.64
2018-03-30T02:28:53.597Z,100136.75
2018-03-30T02:31:19.619Z,100139.28
2018-03-30T02:33:45.586Z,100130.75
2018-03-30T02:36:11.597Z,100130.19
2018-03-30T02:38:37.598Z,100126.81
2018-03-30T02:41:03.592Z,100128.63
2018-03-30T02:43:29.666Z,100127.75
2018-03-30T02:45:55.652Z,100126.13
2018-03-30T02:48:21.682Z,100122.02
2018-03-30T02:50:47.694Z,100120.74
2018-03-30T02:53:13.731Z,100120.52
2018-03-30T02:55:39.723Z,100121.28
2018-03-30T02:58:05.779Z,100113.81
2018-03-30T03:00:31.811Z,100111.84
2018-03-30T03:02:57.838Z,100110.89
2018-03-30T03:05:24.598Z,100107.20
2018-03-30T03:07:50.654Z,100103.91
2018-03-30T03:10:16.702Z,100105.88
2018-03-30T03:12:42.731Z,100106.09
2018-03-30T03:15:15.594Z,100109.86
2018-03-30T03:17:41.597Z,100110.00
2018-03-30T03:20:07.664Z,100110.00
2018-03-30T03:22:33.681Z,100105.66
2018-03-30T03:24:59.689Z,100095.88
2018-03-30T03:27:25.704Z,100102.61
2018-03-30T03:29:51.713Z,100097.64
2018-03-30T03:32:17.709Z,100086.68
2018-03-30T03:34:43.714Z,100089.53
2018-03-30T03:37:09.678Z,100097.91
2018-03-30T03:39:35.694Z,100090.78
2018-03-30T03:42:01.811Z,100090.86
2018-03-30T03:44:27.819Z,100083.05
2018-03-30T03:46:53.878Z,100093.09
2018-03-30T03:49:19.881Z,100093.95
2018-03-30T03:51:45.875Z,100095.75
2018-03-30T03:54:11.883Z,100095.55
2018-03-30T03:56:37.889Z,100097.94
2018-03-30T03:59:03.891Z,100095.83
2018-03-30T04:01:29.909Z,100096.69
2018-03-30T04:03:56.587Z,100100.86
2018-03-30T04:06:22.691Z,100099.23
2018-03-30T04:08:48.717Z,100096.05
2018-03-30T04:11:14.727Z,100099.71
2018-03-30T04:13:41.109Z,100095.31
2018-03-30T04:16:07.211Z,100093.08
2018-03-30T04:18:33.227Z,100089.73
2018-03-30T04:20:59.250Z,100095.70
2018-03-30T04:23:25.244Z,100094.72
2018-03-30T04:25:51.324Z,100093.31
2018-03-30T04:28:17.309Z,100099.46
2018-03-30T04:30:43.289Z,100095.60
2018-03-30T04:33:09.385Z,100093.88
2018-03-30T04:35:35.361Z,100092.19
2018-03-30T04:38:01.362Z,100091.20
2018-03-30T04:40:27.361Z,100088.73
2018-03-30T04:42:53.384Z,100085.73
2018-03-30T04:45:19.381Z,100084.59
2018-03-30T04:47:45.390Z,100080.98
2018-03-30T04:50:11.431Z,100088.45
2018-03-30T04:52:37.425Z,100084.13
2018-03-30T04:55:03.452Z,100084.74
2018-03-30T04:57:29.442Z,100088.19
2018-03-30T04:59:55.485Z,100093.98
2018-03-30T05:02:21.533Z,100093.56
2018-03-30T05:04:47.553Z,100085.04
2018-03-30T05:07:13.560Z,100086.81
2018-03-30T05:09:39.611Z,100089.81
2018-03-30T05:12:05.649Z,100084.20
2018-03-30T05:14:31.632Z,100087.91
2018-03-30T05:16:57.698Z,100092.98
2018-03-30T05:19:23.703Z,100088.88
2018-03-30T05:21:49.726Z,100088.30
2018-03-30T05:24:15.697Z,100087.39
2018-03-30T05:26:41.775Z,100088.50
2018-03-30T05:29:07.799Z,100085.80
2018-03-30T05:31:33.824Z,100077.34
2018-03-30T05:33:59.846Z,100082.21
2018-03-30T05:36:25.825Z,100082.94
2018-03-30T05:38:51.834Z,100080.81
2018-03-30T05:41:17.846Z,100079.06
2018-03-30T05:43:43.861Z,100080.59
2018-03-30T05:46:09.883Z,100078.16
2018-03-30T05:48:35.931Z,100079.94
2018-03-30T05:51:01.998Z,100075.81
2018-03-30T05:53:28.070Z,100077.67
2018-03-30T05:55:54.199Z,100068.45
2018-03-30T05:58:20.204Z,100067.55
2018-03-30T06:00:46.210Z,100066.81
2018-03-30T06:03:12.250Z,100064.05
2018-03-30T06:05:38.287Z,100074.08
2018-03-30T06:08:04.317Z,100064.78
2018-03-30T06:10:30.326Z,100075.56
2018-03-30T06:12:56.382Z,100075.79
2018-03-30T06:15:22.387Z,100070.75
2018-03-30T06:17:48.358Z,100072.42
2018-03-30T06:20:14.414Z,100068.44
2018-03-30T06:22:40.502Z,100074.48
2018-03-30T06:25:06.539Z,100060.66
2018-03-30T06:27:32.536Z,100067.73
2018-03-30T06:29:58.610Z,100056.29
2018-03-30T06:32:24.659Z,100060.94
2018-03-30T06:34:50.669Z,100060.29
2018-03-30T06:37:16.761Z,100060.90
2018-03-30T06:39:42.849Z,100069.48
2018-03-30T06:42:09.807Z,100051.38
2018-03-30T06:44:35.824Z,100055.09
2018-03-30T06:47:01.814Z,100053.92
2018-03-30T06:49:27.812Z,100057.56
2018-03-30T06:51:53.823Z,100052.93
2018-03-30T06:54:19.840Z,100053.53
2018-03-30T06:56:52.861Z,100063.97
2018-03-30T06:59:18.990Z,100058.77
2018-03-30T07:01:45.062Z,100059.46
2018-03-30T07:04:11.090Z,100058.20
2018-03-30T07:06:37.230Z,100053.25
2018-03-30T07:09:03.370Z,100060.40
2018-03-30T07:11:29.357Z,100059.62
2018-03-30T07:13:55.383Z,100056.68
2018-03-30T07:16:21.395Z,100062.23
2018-03-30T07:18:47.381Z,100062.75
2018-03-30T07:21:13.403Z,100061.97
2018-03-30T07:23:39.412Z,100065.83
2018-03-30T07:26:05.400Z,100064.13
2018-03-30T07:28:31.421Z,100063.58
2018-03-30T07:30:57.459Z,100065.55
2018-03-30T07:33:23.522Z,100055.52
2018-03-30T07:35:49.567Z,100046.12
2018-03-30T07:38:15.562Z,100047.38
2018-03-30T07:40:41.624Z,100043.73
2018-03-30T07:43:07.620Z,100038.71
2018-03-30T07:45:33.613Z,100042.51
2018-03-30T07:47:59.619Z,100043.13
2018-03-30T07:50:25.643Z,100045.38
2018-03-30T07:52:51.646Z,100046.13
2018-03-30T07:55:17.687Z,100048.52
2018-03-30T07:57:43.701Z,100057.40
2018-03-30T08:00:09.706Z,100045.25
2018-03-30T08:02:35.713Z,100039.22
2018-03-30T08:05:01.782Z,100040.73
2018-03-30T08:07:27.829Z,100035.70
2018-03-30T08:09:53.825Z,100037.09
2018-03-30T08:12:19.872Z,100027.67
2018-03-30T08:14:45.960Z,100025.53
2018-03-30T08:17:12.003Z,100020.11
2018-03-30T08:19:38.035Z,100009.35
2018-03-30T08:22:04.036Z,100005.77
2018-03-30T08:24:30.035Z,100003.83
2018-03-30T08:26:56.055Z,100005.11
2018-03-30T08:29:22.209Z,100006.05
2018-03-30T08:31:48.338Z,100014.39
2018-03-30T08:34:14.362Z,100005.56
2018-03-30T08:36:40.379Z,99995.23
2018-03-30T08:39:06.451Z,99990.62
2018-03-30T08:41:32.546Z,99995.92
2018-03-30T08:43:58.623Z,99992.69
2018-03-30T08:46:24.795Z,99990.55
2018-03-30T08:48:50.831Z,99992.09
2018-03-30T08:51:17.820Z,99992.93
2018-03-30T08:53:43.815Z,99999.94
2018-03-30T08:56:09.996Z,99993.02
2018-03-30T08:58:36.030Z,99989.36
2018-03-30T09:01:02.038Z,99983.34
2018-03-30T09:03:28.061Z,99978.49
2018-03-30T09:05:54.081Z,99971.52
2018-03-30T09:08:20.072Z,99968.50
2018-03-30T09:10:46.126Z,99967.73
2018-03-30T09:13:12.146Z,99971.04
2018-03-30T09:15:38.195Z,99971.97
2018-03-30T09:18:04.200Z,99979.23
2018-03-30T09:20:30.394Z,99989.02
2018-03-30T09:22:56.544Z,99982.18
2018-03-30T09:25:22.606Z,99975.73
2018-03-30T09:27:48.650Z,99969.30
2018-03-30T09:30:14.673Z,99966.30
2018-03-30T09:32:40.870Z,99966.59
2018-03-30T09:35:06.874Z,99968.22
2018-03-30T09:37:32.873Z,99956.42
2018-03-30T09:39:58.952Z,99958.20
2018-03-30T09:42:25.061Z,99962.28
2018-03-30T09:44:51.073Z,99953.34
2018-03-30T09:47:17.109Z,99954.39
2018-03-30T09:49:43.197Z,99958.13
2018-03-30T09:52:09.238Z,99947.91
2018-03-30T09:54:35.248Z,99953.61
2018-03-30T09:57:01.347Z,99949.33
2018-03-30T09:59:28.003Z,99949.20
2018-03-30T10:01:54.087Z,99946.53
2018-03-30T10:04:22.916Z,99946.83
2018-03-30T10:06:48.983Z,99943.48
2018-03-30T10:09:15.049Z,99943.69
2018-03-30T10:11:41.061Z,99936.47
2018-03-30T10:14:07.160Z,99936.27
2018-03-30T10:16:33.302Z,99931.54
2018-03-30T10:18:59.340Z,99934.24
2018-03-30T10:21:25.390Z,99916.20
2018-03-30T10:23:51.474Z,99920.02
2018-03-30T10:26:17.618Z,99916.41
2018-03-30T10:28:43.679Z,99918.27
2018-03-30T10:31:09.702Z,99910.25
2018-03-30T10:33:35.720Z,99908.63
2018-03-30T10:36:01.803Z,99904.16
2018-03-30T10:38:27.778Z,99896.75
2018-03-30T10:40:53.815Z,99898.92
2018-03-30T10:43:19.818Z,99895.35
2018-03-30T10:45:45.867Z,99891.23
2018-03-30T10:48:11.912Z,99891.75
2018-03-30T10:50:37.966Z,99897.75
2018-03-30T10:53:03.994Z,99886.37
2018-03-30T10:55:30.051Z,99889.83
2018-03-30T10:57:56.132Z,99886.64
2018-03-30T11:00:22.167Z,99876.45
2018-03-30T11:02:48.233Z,99881.56
2018-03-30T11:05:14.364Z,99878.14
2018-03-30T11:07:40.479Z,99864.86
2018-03-30T11:10:06.529Z,99870.98
2018-03-30T11:12:32.612Z,99862.14
2018-03-30T11:14:58.734Z,99857.53
2018-03-30T11:17:24.874Z,99852.91
2018-03-30T11:19:50.914Z,99850.13
2018-03-30T11:22:16.965Z,99843.98
2018-03-30T11:24:43.027Z,99841.59
2018-03-30T11:27:09.601Z,99828.88
2018-03-30T11:29:35.710Z,99826.72
2018-03-30T11:32:01.732Z,99815.36
2018-03-30T11:34:27.822Z,99815.53
2018-03-30T11:36:53.903Z,99807.55
2018-03-30T11:39:19.976Z,99804.14
2018-03-30T11:41:46.030Z,99805.81
2018-03-30T11:44:12.127Z,99815.67
2018-03-30T11:46:38.150Z,99796.47
2018-03-30T11:49:04.243Z,99803.48
2018-03-30T11:51:30.330Z,99788.75
2018-03-30T11:53:56.404Z,99783.61
2018-03-30T11:56:22.510Z,99782.48
2018-03-30T11:58:48.523Z,99777.54
2018-03-30T12:01:14.557Z,99773.41
2018-03-30T12:03:40.931Z,99765.86
2018-03-30T12:06:08.022Z,99757.87
2018-03-30T12:08:34.085Z,99762.04
2018-03-30T12:11:00.250Z,99763.55
2018-03-30T15:53:17.212Z,99472.92
2018-03-30T15:55:43.324Z,99475.59
2018-03-30T15:58:09.516Z,99468.51
2018-03-30T16:00:35.549Z,99464.64
2018-03-30T16:03:01.544Z,99454.27
2018-03-30T16:05:27.578Z,99449.31
2018-03-30T16:07:53.645Z,99450.45
2018-03-30T16:10:20.618Z,99441.48
2018-03-30T16:12:46.781Z,99438.52
2018-03-30T16:15:12.820Z,99436.11
2018-03-30T16:17:38.815Z,99431.67
2018-03-30T16:20:04.768Z,99435.52
2018-03-30T16:22:31.249Z,99430.27
2018-03-30T16:24:57.114Z,99421.81
2018-03-30T16:27:22.927Z,99423.58
2018-03-30T16:29:48.782Z,99425.34
2018-03-30T16:32:14.622Z,99424.22
2018-03-30T16:34:40.564Z,99422.16
2018-03-30T16:37:07.096Z,99420.41
2018-03-30T16:39:33.010Z,99423.92
2018-03-30T16:41:58.841Z,99420.86
2018-03-30T16:44:24.751Z,99422.82
2018-03-30T16:46:50.605Z,99416.32
2018-03-30T16:49:16.556Z,99420.86
2018-03-30T16:51:42.622Z,99417.48
2018-03-30T16:54:09.030Z,99413.87
2018-03-30T16:56:34.872Z,99411.09
2018-03-30T16:59:00.762Z,99408.30
2018-03-30T17:01:26.593Z,99402.00
2018-03-30T17:03:52.418Z,99405.19
2018-03-30T17:06:18.397Z,99399.45
2018-03-30T17:08:44.200Z,99402.74
2018-03-30T17:11:10.056Z,99392.63
2018-03-30T17:13:35.897Z,99397.26
2018-03-30T17:16:01.727Z,99399.31
2018-03-30T17:18:27.547Z,99395.29
2018-03-30T17:20:53.423Z,99397.75
2018-03-30T17:23:19.239Z,99396.71
2018-03-30T17:25:45.197Z,99392.30
2018-03-30T17:28:11.108Z,99394.04
2018-03-30T17:30:36.910Z,99400.61
2018-03-30T17:33:02.983Z,99392.78
2018-03-30T17:35:28.814Z,99392.73
2018-03-30T17:37:54.655Z,99392.70
2018-03-30T17:40:20.544Z,99387.05
2018-03-30T17:42:46.336Z,99393.84
2018-03-30T17:45:12.234Z,99404.26
2018-03-30T17:47:38.043Z,99397.97
2018-03-30T17:50:03.890Z,99400.33
2018-03-30T17:52:29.723Z,99393.70
2018-03-30T17:54:55.545Z,99399.25
2018-03-30T17:57:21.372Z,99397.40
2018-03-30T17:59:47.352Z,99392.53
2018-03-30T18:02:13.193Z,99394.81
2018-03-30T18:04:39.045Z,99400.55
2018-03-30T18:07:04.843Z,99398.77
2018-03-30T18:09:30.658Z,99410.52
2018-03-30T18:11:56.485Z,99396.83
2018-03-30T18:14:22.379Z,99404.14
2018-03-30T18:16:48.243Z,99409.79
2018-03-30T18:19:14.060Z,99410.81
2018-03-30T18:21:39.859Z,99416.28
2018-03-30T18:24:05.760Z,99420.52
2018-03-30T18:26:31.626Z,99415.97
2018-03-30T18:28:57.463Z,99423.46
2018-03-30T18:31:23.385Z,99426.34
2018-03-30T18:33:49.222Z,99435.41
2018-03-30T18:36:15.053Z,99435.19
2018-03-30T18:38:40.987Z,99441.09
2018-03-30T18:41:06.818Z,99455.78
2018-03-30T18:43:32.654Z,99481.97
2018-03-30T18:45:58.504Z,99501.62
2018-03-30T18:48:24.302Z,99507.92
2018-03-30T18:50:50.842Z,99502.39
2018-03-30T18:53:16.827Z,99516.73
2018-03-30T18:55:42.647Z,99515.81
2018-03-30T18:58:08.586Z,99515.41
2018-03-30T19:00:34.414Z,99523.56
2018-03-30T19:03:00.230Z,99521.02
2018-03-30T19:05:26.047Z,99510.63
2018-03-30T19:07:51.851Z,99522.41
2018-03-30T19:10:17.666Z,99516.62
2018-03-30T19:12:43.514Z,99523.05
2018-03-30T19:15:09.316Z,99525.27
2018-03-30T19:17:35.216Z,99530.33
2018-03-30T19:20:01.010Z,99528.45
2018-03-30T19:22:26.852Z,99526.28
2018-03-30T19:24:52.668Z,99525.84
2018-03-30T19:27:18.490Z,99538.27
2018-03-30T19:29:45.310Z,99537.56
2018-03-30T19:32:11.139Z,99555.36
2018-03-30T19:34:37.076Z,99549.42
2018-03-30T19:37:03.060Z,99550.12
2018-03-30T19:39:28.895Z,99562.56
2018-03-30T19:41:54.708Z,99563.73
2018-03-30T19:44:20.506Z,99572.04
2018-03-30T19:46:46.332Z,99568.55
2018-03-30T19:49:12.166Z,99573.45
2018-03-30T19:51:37.952Z,99577.36
2018-03-30T19:54:03.806Z,99565.81
2018-03-30T19:56:29.607Z,99546.38
2018-03-30T19:58:55.456Z,99545.92
2018-03-30T20:01:21.296Z,99541.34
2018-03-30T20:03:47.143Z,99539.23
2018-03-30T20:06:13.087Z,99540.44
2018-03-30T20:08:38.958Z,99541.31
2018-03-30T20:11:04.799Z,99545.59
2018-03-30T20:13:30.679Z,99543.52
2018-03-30T20:15:56.519Z,99539.61
2018-03-30T20:18:22.373Z,99527.16
2018-03-30T20:20:48.189Z,99525.70
2018-03-30T20:23:14.088Z,99528.48
2018-03-30T20:25:39.861Z,99520.80
2018-03-30T20:28:05.761Z,99512.05
2018-03-30T20:30:31.609Z,99514.70
2018-03-30T20:32:57.446Z,99510.72
2018-03-30T20:35:23.281Z,99505.41
2018-03-30T20:37:49.225Z,99514.29
2018-03-30T20:40:15.056Z,99520.35
2018-03-30T20:42:40.919Z,99524.75
2018-03-30T20:45:06.943Z,99528.32
2018-03-30T20:47:32.782Z,99518.86
2018-03-30T20:49:58.958Z,99525.08
2018-03-30T20:52:24.828Z,99528.73
2018-03-30T20:54:50.636Z,99526.41
2018-03-30T20:57:16.488Z,99524.50
2018-03-30T20:59:42.753Z,99525.17
2018-03-30T21:02:09.220Z,99519.94
2018-03-30T21:04:35.041Z,99511.72
2018-03-30T21:07:00.906Z,99519.36
2018-03-30T21:09:26.758Z,99517.03
2018-03-30T21:11:52.564Z,99517.03
2018-03-30T21:14:18.550Z,99529.48
2018-03-30T21:16:44.376Z,99531.64
2018-03-30T21:19:10.165Z,99551.73
2018-03-30T21:21:36.012Z,99561.36
2018-03-30T21:24:01.824Z,99554.39
2018-03-30T21:26:27.650Z,99559.12
2018-03-30T21:28:53.524Z,99563.05
2018-03-30T21:31:19.424Z,99558.56
2018-03-30T21:33:45.265Z,99562.55
2018-03-30T21:36:11.131Z,99562.72
2018-03-30T21:38:37.002Z,99565.20
2018-03-30T21:41:03.834Z,99564.79
2018-03-30T21:43:29.694Z,99563.70
2018-03-30T21:45:55.562Z,99555.32
2018-03-30T21:48:21.378Z,99549.10
2018-03-30T21:50:47.220Z,99543.30
2018-03-30T21:53:13.078Z,99544.09
2018-03-30T21:55:39.068Z,99550.16
2018-03-30T21:58:05.051Z,99556.66
2018-03-30T22:00:30.896Z,99550.41
2018-03-30T22:02:56.744Z,99552.89
2018-03-30T22:05:22.600Z,99555.22
2018-03-30T22:07:48.400Z,99558.87
2018-03-30T22:10:14.292Z,99562.55
2018-03-30T22:12:40.196Z,99564.38
2018-03-30T22:15:06.002Z,99559.31
2018-03-30T22:17:31.861Z,99566.20
2018-03-30T22:19:57.749Z,99566.28
2018-03-30T22:22:23.648Z,99571.59
2018-03-30T22:24:49.505Z,99574.41
2018-03-30T22:27:15.474Z,99578.81
2018-03-30T22:29:41.304Z,99574.08
2018-03-30T22:32:07.218Z,99575.91
2018-03-30T22:34:33.034Z,99574.08
2018-03-30T22:36:58.977Z,99580.72
2018-03-30T22:39:24.863Z,99574.83
2018-03-30T22:41:50.800Z,99579.56
2018-03-30T22:44:16.630Z,99580.14
2018-03-30T22:46:42.462Z,99570.93
2018-03-30T22:49:08.266Z,99568.44
2018-03-30T22:51:34.119Z,99566.53
2018-03-30T22:53:59.948Z,99573.34
2018-03-30T22:56:25.784Z,99581.14
2018-03-30T22:58:51.617Z,99578.89
2018-03-30T23:01:17.496Z,99578.06
2018-03-30T23:03:43.391Z,99582.36
2018-03-30T23:06:09.189Z,99587.98
2018-03-30T23:08:35.118Z,99590.06
2018-03-30T23:11:00.930Z,99587.51
2018-03-30T23:13:26.843Z,99594.06
2018-03-30T23:15:52.695Z,99592.38
2018-03-30T23:18:18.571Z,99590.14
2018-03-30T23:20:44.442Z,99594.37
2018-03-30T23:23:10.285Z,99583.33
2018-03-30T23:25:36.134Z,99586.59
2018-03-30T23:28:01.938Z,99585.16
2018-03-30T23:30:27.780Z,99586.41
2018-03-30T23:32:53.648Z,99588.81
2018-03-30T23:35:19.541Z,99595.46
2018-03-30T23:37:45.374Z,99591.31
2018-03-30T23:40:11.214Z,99590.73
2018-03-30T23:42:37.170Z,99596.60
2018-03-30T23:45:02.970Z,99597.77
2018-03-30T23:47:28.860Z,99595.10
2018-03-30T23:49:54.726Z,99597.09
2018-03-30T23:52:20.539Z,99599.73
2018-03-30T23:54:46.387Z,99599.45
2018-03-30T23:57:12.210Z,99602.27
2018-03-30T23:59:38.077Z,99604.77
